Time;durP1;ratioP1;P1;durP2;ratioP2;P2;SDS_P1;SDS_P2;PMS_P1;PMS_P2;Temp;Humidity;BMP_temperature;BMP_pressure;BME280_temperature;BME280_humidity;BME280_pressure;Samples;Min_cycle;Max_cycle;Signal;HPM_P1;HPM_P2
2023/05/11 06:43:38;;;;;;;29.77;15.13;;;11.90;99.90;;;;;;5696334;24;20503;-61
2023/05/11 06:46:07;;;;;;;30.80;13.73;;;12.10;99.90;;;;;;4816447;29;20236;-61
2023/05/11 06:48:35;;;;;;;31.23;13.67;;;12.40;99.90;;;;;;4815183;29;20209;-61
2023/05/11 06:51:04;;;;;;;32.80;13.73;;;12.70;99.90;;;;;;4819810;29;20257;-62
2023/05/11 06:53:34;;;;;;;27.17;13.03;;;12.90;99.90;;;;;;4822189;29;20248;-61
2023/05/11 06:56:03;;;;;;;34.57;13.67;;;13.20;99.90;;;;;;4816498;29;20285;-61
2023/05/11 06:58:32;;;;;;;30.27;12.60;;;13.30;99.90;;;;;;4830360;29;20262;-61
2023/05/11 07:01:04;;;;;;;31.37;12.50;;;13.60;99.90;;;;;;4824256;29;20523;-62
2023/05/11 07:03:32;;;;;;;30.93;11.10;;;13.80;99.90;;;;;;4820229;29;20241;-61
2023/05/11 07:06:01;;;;;;;27.23;10.63;;;13.80;99.90;;;;;;4821244;29;20219;-61
2023/05/11 07:50:23;;;;;;;15.83;8.10;;;14.90;99.90;;;;;;4751869;30;20243;-58
2023/05/11 07:52:52;;;;;;;15.97;7.70;;;15.00;99.90;;;;;;4749213;30;20234;-59
2023/05/11 07:55:23;;;;;;;13.33;7.80;;;15.00;99.90;;;;;;4754781;30;20233;-58
2023/05/11 07:57:52;;;;;;;10.03;7.27;;;15.00;99.90;;;;;;4758843;30;20228;-58
2023/05/11 08:00:21;;;;;;;20.43;7.97;;;15.00;99.90;;;;;;4753576;30;20314;-58
2023/05/11 08:02:49;;;;;;;9.90;7.33;;;15.10;99.90;;;;;;4748746;30;20665;-58
2023/05/11 08:05:19;;;;;;;20.87;9.00;;;15.20;99.90;;;;;;4751213;30;20597;-58
2023/05/11 08:07:49;;;;;;;12.80;6.80;;;15.20;99.90;;;;;;4752435;30;20238;-58
2023/05/11 08:10:17;;;;;;;14.60;7.30;;;15.40;99.90;;;;;;4752751;30;20281;-57
2023/05/11 08:12:45;;;;;;;15.13;7.80;;;15.60;99.90;;;;;;4758795;30;20254;-59
2023/05/11 08:15:14;;;;;;;13.83;8.00;;;15.70;99.90;;;;;;4758812;30;20948;-58
2023/05/11 08:17:44;;;;;;;18.83;8.33;;;15.90;99.90;;;;;;4760463;30;20539;-59
2023/05/11 08:20:51;;;;;;;18.40;9.63;;;15.90;99.90;;;;;;4750132;30;20627;-59
2023/05/11 08:23:57;;;;;;;18.03;8.77;;;15.70;99.90;;;;;;4763619;30;20329;-59
2023/05/11 08:26:27;;;;;;;17.17;9.47;;;15.60;99.90;;;;;;4755760;30;20219;-58
2023/05/11 08:28:55;;;;;;;18.97;9.20;;;15.50;99.90;;;;;;4751415;30;20223;-58
2023/05/11 08:31:23;;;;;;;11.57;9.03;;;15.30;99.90;;;;;;4752232;30;20291;-58
2023/05/11 08:33:52;;;;;;;18.33;9.93;;;15.20;99.90;;;;;;4752667;30;20290;-58
2023/05/11 08:36:21;;;;;;;15.43;8.97;;;15.20;99.90;;;;;;4756616;30;20201;-58
2023/05/11 08:38:49;;;;;;;15.63;9.53;;;15.20;99.90;;;;;;4752943;30;20244;-59
2023/05/11 08:41:18;;;;;;;12.40;8.30;;;15.40;99.90;;;;;;4762841;30;20242;-58
2023/05/11 08:43:49;;;;;;;12.60;9.10;;;15.60;99.90;;;;;;4764046;30;20284;-58
2023/05/11 09:11:10;;;;;;;13.70;6.90;;;16.20;99.90;;;;;;4766320;29;20226;-60
2023/05/11 09:13:39;;;;;;;10.93;7.40;;;16.30;99.90;;;;;;4778764;29;20260;-60
2023/05/11 09:16:07;;;;;;;12.23;7.60;;;16.30;99.90;;;;;;4778326;29;20234;-61
2023/05/11 09:19:00;;;;;;;16.80;7.20;;;16.50;99.90;;;;;;4779197;29;20586;-60
2023/05/11 09:21:30;;;;;;;11.33;6.17;;;16.40;99.90;;;;;;4774710;29;20240;-61
2023/05/11 09:23:59;;;;;;;14.53;8.17;;;16.60;99.90;;;;;;4782580;29;20202;-60
2023/05/11 09:26:29;;;;;;;12.17;8.20;;;16.70;99.90;;;;;;4784168;29;20329;-60
2023/05/11 09:28:58;;;;;;;16.57;8.77;;;16.90;99.90;;;;;;4780582;29;20249;-61
2023/05/11 09:31:41;;;;;;;17.27;8.17;;;17.00;99.90;;;;;;4778900;29;20313;-61
2023/05/11 09:34:14;;;;;;;19.13;8.57;;;17.10;99.90;;;;;;4786097;29;20236;-61
2023/05/11 09:36:44;;;;;;;15.03;7.87;;;17.10;99.90;;;;;;4777954;29;20246;-61
2023/05/11 09:39:13;;;;;;;13.13;7.67;;;17.00;99.90;;;;;;4780571;29;20218;-60
2023/05/11 09:41:45;;;;;;;14.40;8.37;;;16.70;99.90;;;;;;4774684;29;20225;-60
2023/05/11 09:44:15;;;;;;;14.57;7.90;;;16.60;99.90;;;;;;4786650;29;20233;-60
2023/05/11 09:46:45;;;;;;;17.20;8.10;;;16.60;99.90;;;;;;4792837;29;20221;-60
2023/05/11 09:49:13;;;;;;;17.00;7.90;;;16.60;99.90;;;;;;4800410;29;20230;-61
2023/05/11 09:51:41;;;;;;;17.87;8.57;;;16.70;99.90;;;;;;4803101;29;20244;-61
2023/05/11 09:54:17;;;;;;;15.30;7.60;;;16.80;99.90;;;;;;4805874;29;20210;-60
2023/05/11 09:56:48;;;;;;;15.60;8.30;;;16.90;99.90;;;;;;4807036;29;20238;-61
2023/05/11 09:59:17;;;;;;;14.20;8.33;;;17.10;99.90;;;;;;4800467;29;21061;-61
2023/05/11 10:01:45;;;;;;;18.73;8.60;;;17.90;99.90;;;;;;4797818;29;20237;-61
2023/05/11 10:04:14;;;;;;;10.83;7.37;;;18.70;99.90;;;;;;4803444;29;20253;-61
2023/05/11 10:06:50;;;;;;;16.20;6.90;;;19.30;99.90;;;;;;4801257;29;20227;-61
2023/05/11 10:09:23;;;;;;;13.33;6.20;;;20.00;99.90;;;;;;4784699;29;20240;-61
2023/05/11 10:11:53;;;;;;;12.47;6.90;;;19.90;99.90;;;;;;4806288;29;20194;-61
2023/05/11 10:14:24;;;;;;;10.73;6.53;;;19.30;99.90;;;;;;4799827;29;20222;-61
2023/05/11 10:16:53;;;;;;;14.10;7.07;;;18.70;99.90;;;;;;4803253;29;20748;-61
2023/05/11 10:19:22;;;;;;;12.43;7.70;;;18.20;99.90;;;;;;4805324;29;20233;-61
2023/05/11 10:21:52;;;;;;;20.23;8.20;;;17.80;99.90;;;;;;4805085;29;20631;-61
2023/05/11 10:24:21;;;;;;;12.80;7.03;;;17.70;99.90;;;;;;4802451;29;20213;-61
2023/05/11 10:26:50;;;;;;;13.13;7.57;;;17.60;99.90;;;;;;4799609;29;20194;-61
2023/05/11 12:56:56;;;;;;;65.33;34.33;;;18.60;99.90;;;;;;5032682;24;20240;-61
2023/05/11 12:59:36;;;;;;;68.60;37.10;;;18.50;99.90;;;;;;4834519;29;20224;-61
2023/05/11 13:02:09;;;;;;;56.40;30.63;;;18.40;99.90;;;;;;4833175;29;20315;-61
2023/05/11 13:04:39;;;;;;;55.20;29.33;;;18.20;99.90;;;;;;4832626;29;20219;-61
2023/05/11 13:07:08;;;;;;;46.97;26.43;;;18.00;99.90;;;;;;4833124;29;20224;-61
2023/05/11 13:09:36;;;;;;;49.37;25.93;;;17.70;99.90;;;;;;4841980;29;20185;-61
2023/05/11 13:12:20;;;;;;;43.03;23.13;;;17.50;99.90;;;;;;4838269;29;20249;-63
2023/05/11 13:14:50;;;;;;;53.13;26.43;;;17.10;99.90;;;;;;4826723;29;20224;-63
2023/05/11 13:17:30;;;;;;;43.03;25.70;;;16.00;99.90;;;;;;4831278;29;20231;-63
2023/05/11 13:20:17;;;;;;;50.27;25.97;;;14.80;99.90;;;;;;4828893;29;20233;-63
2023/05/11 13:22:46;;;;;;;49.20;24.67;;;13.90;99.90;;;;;;4828756;29;20223;-62
2023/05/11 13:25:15;;;;;;;57.70;25.77;;;13.30;99.90;;;;;;4828818;29;20228;-61
2023/05/11 13:27:45;;;;;;;62.67;27.33;;;13.20;99.90;;;;;;4827822;29;20288;-61
2023/05/11 13:30:14;;;;;;;176.63;32.40;;;13.50;99.90;;;;;;4831644;29;20200;-62
2023/05/11 13:32:42;;;;;;;415.03;40.60;;;13.60;99.90;;;;;;4834675;29;20228;-62
2023/05/11 13:35:11;;;;;;;66.60;26.40;;;13.80;99.90;;;;;;4832482;29;20233;-62
2023/05/11 13:37:40;;;;;;;618.80;47.33;;;13.90;99.90;;;;;;4840795;29;20227;-61
2023/05/11 13:40:09;;;;;;;552.30;44.03;;;13.90;99.90;;;;;;4837095;29;20224;-61
2023/05/11 13:42:37;;;;;;;40.57;18.00;;;14.00;99.90;;;;;;4826540;29;20311;-61
2023/05/11 13:45:08;;;;;;;44.63;18.63;;;14.20;99.90;;;;;;4833696;29;20272;-61
2023/05/11 13:47:36;;;;;;;37.30;17.67;;;14.10;99.90;;;;;;4824773;29;20288;-62
2023/05/11 13:50:06;;;;;;;32.67;14.57;;;14.10;99.90;;;;;;4832247;29;20318;-61
2023/05/11 13:52:36;;;;;;;33.77;15.40;;;13.90;99.90;;;;;;4833938;29;20217;-61
2023/05/11 13:55:04;;;;;;;44.83;17.33;;;13.90;99.90;;;;;;4836506;29;20635;-61
2023/05/11 13:57:33;;;;;;;74.00;19.00;;;14.10;99.90;;;;;;4816312;29;20235;-61
2023/05/11 14:00:01;;;;;;;35.40;17.00;;;14.30;99.90;;;;;;4830301;29;20200;-61
2023/05/11 14:02:34;;;;;;;50.90;19.67;;;14.40;99.90;;;;;;4832030;29;20228;-61
2023/05/11 14:05:02;;;;;;;59.47;19.87;;;14.40;99.90;;;;;;4830828;29;20777;-61
2023/05/11 14:07:30;;;;;;;45.07;19.93;;;14.50;99.90;;;;;;4837386;29;20236;-61
2023/05/11 14:10:13;;;;;;;52.03;19.03;;;14.60;99.90;;;;;;4841717;29;20643;-61
2023/05/11 14:12:42;;;;;;;35.47;18.73;;;14.70;99.90;;;;;;4833558;29;20920;-61
2023/05/11 14:15:11;;;;;;;31.90;17.40;;;14.70;99.90;;;;;;4828700;29;20204;-61
2023/05/11 14:17:41;;;;;;;36.10;16.33;;;14.70;99.90;;;;;;4835994;29;20232;-61
2023/05/11 14:20:11;;;;;;;31.87;17.00;;;14.70;99.90;;;;;;4838158;29;20243;-62
2023/05/11 14:22:40;;;;;;;26.60;14.50;;;14.80;99.90;;;;;;4842793;29;20315;-61
2023/05/11 14:25:09;;;;;;;24.27;13.13;;;14.70;99.90;;;;;;4831294;29;20612;-61
2023/05/11 14:27:37;;;;;;;26.73;14.77;;;14.40;99.90;;;;;;4832036;29;20225;-61
2023/05/11 14:30:07;;;;;;;30.00;15.30;;;14.40;99.90;;;;;;4824374;29;20201;-61
2023/05/11 14:32:35;;;;;;;29.03;15.57;;;14.40;99.90;;;;;;4832571;29;20220;-61
2023/05/11 14:35:08;;;;;;;26.53;14.10;;;14.40;99.90;;;;;;4829700;29;20238;-61
2023/05/11 14:37:37;;;;;;;23.93;13.80;;;14.40;99.90;;;;;;4828561;29;20249;-61
2023/05/11 14:40:06;;;;;;;26.60;13.40;;;14.30;99.90;;;;;;4829069;29;20704;-61
2023/05/11 14:42:35;;;;;;;24.27;13.13;;;14.40;99.90;;;;;;4830105;29;20263;-61
2023/05/11 14:45:04;;;;;;;21.97;13.67;;;14.40;99.90;;;;;;4829972;29;20602;-61
2023/05/11 14:47:32;;;;;;;25.63;14.17;;;14.40;99.90;;;;;;4827183;29;20643;-61
2023/05/11 14:50:00;;;;;;;32.40;16.43;;;14.50;99.90;;;;;;4825878;29;20662;-61
2023/05/11 14:52:31;;;;;;;29.13;16.30;;;14.50;99.90;;;;;;4825270;29;20229;-61
2023/05/11 14:54:59;;;;;;;31.60;16.53;;;14.50;99.90;;;;;;4815611;29;20224;-61
2023/05/11 14:57:27;;;;;;;29.10;15.40;;;14.60;99.90;;;;;;4825192;29;20573;-61
2023/05/11 14:59:56;;;;;;;29.33;16.50;;;14.70;99.90;;;;;;4808765;29;20240;-61
2023/05/11 15:02:28;;;;;;;32.87;16.40;;;14.70;99.90;;;;;;4826139;29;20239;-61
2023/05/11 15:04:56;;;;;;;31.70;16.77;;;14.70;99.90;;;;;;4825411;29;20226;-61
2023/05/11 15:07:24;;;;;;;31.13;16.80;;;14.90;99.90;;;;;;4826344;29;20233;-61
2023/05/11 15:09:54;;;;;;;34.37;17.93;;;14.80;99.90;;;;;;4830185;29;20659;-61
2023/05/11 15:12:23;;;;;;;39.17;17.87;;;14.90;99.90;;;;;;4825677;29;20199;-61
2023/05/11 15:14:51;;;;;;;33.93;17.50;;;14.90;99.90;;;;;;4810082;29;20257;-61
2023/05/11 15:17:20;;;;;;;30.57;15.77;;;14.90;99.90;;;;;;4832050;29;20222;-61
2023/05/11 15:19:49;;;;;;;24.97;14.10;;;14.80;99.90;;;;;;4833908;29;20285;-61
2023/05/11 15:22:18;;;;;;;20.30;11.37;;;14.80;99.90;;;;;;4834729;29;20260;-61
2023/05/11 15:24:47;;;;;;;19.93;9.83;;;14.60;99.90;;;;;;4832588;29;20253;-61
2023/05/11 15:27:16;;;;;;;10.30;6.53;;;14.60;99.90;;;;;;4829391;29;20230;-61
2023/05/11 15:33:02;;;;;;;10.13;6.00;;;14.30;99.90;;;;;;5523704;24;20244;-60
2023/05/11 15:35:30;;;;;;;8.33;5.97;;;14.30;99.90;;;;;;4845728;29;20254;-60
2023/05/11 15:37:59;;;;;;;10.83;6.03;;;14.40;99.90;;;;;;4846052;29;20223;-59
2023/05/11 15:40:27;;;;;;;9.27;7.07;;;14.40;99.90;;;;;;4855408;29;20232;-60
2023/05/11 15:42:57;;;;;;;8.20;7.40;;;14.40;99.90;;;;;;4850706;29;20931;-60
2023/05/11 15:45:26;;;;;;;10.40;7.50;;;14.50;99.90;;;;;;4844285;29;20291;-60
2023/05/11 15:47:54;;;;;;;15.40;8.23;;;14.60;99.90;;;;;;4848495;29;20196;-60
2023/05/11 15:50:23;;;;;;;13.80;8.13;;;14.70;99.90;;;;;;4853207;29;20248;-60
2023/05/11 15:52:51;;;;;;;12.17;8.80;;;14.80;99.90;;;;;;4856168;29;20217;-60
2023/05/11 15:55:19;;;;;;;9.50;8.20;;;15.20;99.90;;;;;;4853622;29;20240;-60
2023/05/11 15:57:48;;;;;;;9.40;7.57;;;15.30;99.90;;;;;;4851336;29;20247;-60
2023/05/11 16:00:18;;;;;;;8.17;7.33;;;15.50;99.90;;;;;;4852719;29;20217;-60
2023/05/11 16:02:47;;;;;;;9.93;7.23;;;15.60;99.90;;;;;;4852985;29;20237;-60
2023/05/11 16:05:16;;;;;;;9.67;7.53;;;15.90;99.90;;;;;;4855676;29;20237;-60
2023/05/11 16:07:44;;;;;;;8.00;7.20;;;16.20;99.90;;;;;;4855226;29;20311;-61
2023/05/11 16:10:12;;;;;;;12.57;7.83;;;16.50;99.90;;;;;;4859005;29;20575;-60
2023/05/11 16:12:40;;;;;;;15.13;8.43;;;16.60;99.90;;;;;;4851748;29;20259;-60
2023/05/11 16:15:09;;;;;;;8.47;7.53;;;16.70;99.90;;;;;;4849932;29;21017;-61
2023/05/11 16:17:39;;;;;;;9.97;8.27;;;16.70;99.90;;;;;;4855226;29;20728;-60
2023/05/11 16:20:08;;;;;;;8.87;7.97;;;16.70;99.90;;;;;;4832084;29;20237;-61
2023/05/11 16:22:37;;;;;;;10.23;8.57;;;16.80;99.90;;;;;;4848552;29;20231;-60
2023/05/11 16:25:08;;;;;;;11.73;9.37;;;16.80;99.90;;;;;;4852442;29;20318;-60
2023/05/11 16:27:36;;;;;;;10.13;8.33;;;16.90;99.90;;;;;;4847746;29;20194;-61
2023/05/11 16:30:06;;;;;;;9.70;8.57;;;16.90;99.90;;;;;;4847409;29;20203;-61
2023/05/11 16:32:52;;;;;;;9.03;8.17;;;16.90;99.90;;;;;;4829109;29;20268;-61
2023/05/11 16:35:21;;;;;;;12.93;7.17;;;17.10;99.90;;;;;;4831548;29;20232;-60
2023/05/11 16:37:49;;;;;;;19.73;6.40;;;17.20;99.90;;;;;;4828488;29;20835;-60
2023/05/11 16:40:19;;;;;;;9.30;6.07;;;17.10;99.90;;;;;;4827760;29;20228;-60
2023/05/11 16:42:48;;;;;;;9.50;7.47;;;16.90;99.90;;;;;;4826443;29;20232;-61
2023/05/11 16:45:17;;;;;;;9.00;7.27;;;16.70;99.90;;;;;;4834828;29;20207;-61
2023/05/11 16:47:45;;;;;;;8.53;6.93;;;16.50;99.90;;;;;;4823590;29;20224;-61
2023/05/11 16:50:15;;;;;;;11.17;8.13;;;16.30;99.90;;;;;;4836026;29;20324;-60
2023/05/11 16:52:43;;;;;;;10.07;8.57;;;16.20;99.90;;;;;;4836824;29;20258;-60
2023/05/11 16:55:14;;;;;;;14.83;8.60;;;16.10;99.90;;;;;;4840422;29;20299;-61
2023/05/11 16:57:43;;;;;;;11.83;8.30;;;16.00;99.90;;;;;;4835178;29;20378;-61
2023/05/11 17:00:13;;;;;;;15.57;9.33;;;16.00;99.90;;;;;;4821306;29;20207;-61
2023/05/11 17:02:41;;;;;;;14.23;9.57;;;15.90;99.90;;;;;;4822757;29;20231;-61
2023/05/11 17:05:10;;;;;;;15.80;10.13;;;15.90;99.90;;;;;;4825978;29;20269;-61
2023/05/11 17:07:41;;;;;;;18.47;10.10;;;15.80;99.90;;;;;;4827379;29;20244;-61
2023/05/11 17:10:10;;;;;;;21.00;12.17;;;15.70;99.90;;;;;;4827523;29;20236;-60
2023/05/11 17:12:39;;;;;;;19.43;12.17;;;15.60;99.90;;;;;;4830330;29;20197;-61
2023/05/11 17:15:08;;;;;;;25.93;14.20;;;15.60;99.90;;;;;;4821661;29;20689;-60
2023/05/11 17:17:37;;;;;;;34.43;19.13;;;15.60;99.90;;;;;;4827683;29;20267;-61
2023/05/11 17:20:06;;;;;;;38.63;21.87;;;15.60;99.90;;;;;;4830541;29;20322;-61
2023/05/11 17:22:35;;;;;;;41.60;22.13;;;15.50;99.90;;;;;;4833101;29;20238;-61
2023/05/11 17:25:06;;;;;;;33.63;19.67;;;15.50;99.90;;;;;;4825574;29;20256;-61
2023/05/11 17:27:35;;;;;;;31.80;18.93;;;15.60;99.90;;;;;;4838046;29;20202;-61
2023/05/11 17:30:04;;;;;;;29.77;15.97;;;15.50;99.90;;;;;;4838777;29;20194;-61
2023/05/11 17:32:32;;;;;;;23.63;13.77;;;15.50;99.90;;;;;;4848463;29;20240;-60
2023/05/11 17:35:02;;;;;;;15.63;11.47;;;15.50;99.90;;;;;;4842512;29;20232;-61
2023/05/11 17:37:31;;;;;;;15.73;11.20;;;15.40;99.90;;;;;;4840592;29;20257;-61
2023/05/11 17:39:59;;;;;;;14.97;9.93;;;15.40;99.90;;;;;;4839773;29;20232;-61
2023/05/11 17:42:30;;;;;;;16.93;9.90;;;15.20;99.90;;;;;;4828212;29;21033;-61
2023/05/11 17:44:58;;;;;;;14.03;9.47;;;15.10;99.90;;;;;;4830550;29;20213;-61
2023/05/11 17:47:26;;;;;;;17.03;9.57;;;15.10;99.90;;;;;;4826092;29;20270;-61
2023/05/11 17:49:55;;;;;;;14.40;10.50;;;14.90;99.90;;;;;;4830457;29;20319;-61
2023/05/11 17:52:26;;;;;;;16.27;10.83;;;14.90;99.90;;;;;;4832264;29;20289;-61
2023/05/11 17:54:54;;;;;;;13.80;10.73;;;14.90;99.90;;;;;;4839427;29;20674;-61
2023/05/11 17:57:24;;;;;;;15.17;11.17;;;14.90;99.90;;;;;;4837132;29;20535;-61
2023/05/11 17:59:53;;;;;;;18.37;12.33;;;14.90;99.90;;;;;;4832959;29;20210;-61
2023/05/11 18:02:22;;;;;;;19.33;11.20;;;14.90;99.90;;;;;;4838379;29;20241;-61
2023/05/11 18:04:50;;;;;;;17.67;11.90;;;14.80;99.90;;;;;;4838481;29;20227;-61
2023/05/11 18:07:19;;;;;;;19.20;12.50;;;14.80;99.90;;;;;;4836554;29;20268;-61
2023/05/11 18:09:47;;;;;;;18.53;12.53;;;14.70;99.90;;;;;;4833933;29;20233;-61
2023/05/11 18:12:16;;;;;;;21.10;13.40;;;14.80;99.90;;;;;;4834449;29;20197;-61
2023/05/11 18:14:44;;;;;;;21.87;13.23;;;14.70;99.90;;;;;;4840451;29;20217;-61
2023/05/11 18:17:14;;;;;;;18.27;12.93;;;14.60;99.90;;;;;;4832728;29;20228;-61
2023/05/11 18:19:42;;;;;;;23.40;13.73;;;14.50;99.90;;;;;;4839132;29;20232;-61
2023/05/11 18:22:11;;;;;;;21.57;14.20;;;14.50;99.90;;;;;;4839339;29;20248;-61
2023/05/11 18:24:39;;;;;;;27.80;15.03;;;14.50;99.90;;;;;;4839221;29;22004;-61
2023/05/11 18:27:08;;;;;;;21.83;14.17;;;14.40;99.90;;;;;;4836374;29;20197;-61
2023/05/11 18:29:37;;;;;;;23.83;15.43;;;14.40;99.90;;;;;;4834961;29;20221;-61
2023/05/11 18:32:05;;;;;;;28.70;17.07;;;14.40;99.90;;;;;;4835261;29;20228;-61
2023/05/11 18:34:39;;;;;;;28.13;17.70;;;14.50;99.90;;;;;;4839557;29;20252;-61
2023/05/11 18:37:08;;;;;;;25.10;16.23;;;14.50;99.90;;;;;;4834670;29;20236;-61
2023/05/11 18:39:37;;;;;;;29.90;17.50;;;14.50;99.90;;;;;;4837472;29;20210;-61
2023/05/11 18:42:06;;;;;;;27.13;16.87;;;14.50;99.90;;;;;;4821335;29;20722;-61
2023/05/11 18:44:34;;;;;;;26.93;16.67;;;14.40;99.90;;;;;;4839834;29;20228;-61
2023/05/11 18:47:03;;;;;;;22.33;15.97;;;14.40;99.90;;;;;;4832133;29;20237;-61
2023/05/11 18:49:31;;;;;;;28.63;16.43;;;14.40;99.90;;;;;;4840482;29;20281;-61
2023/05/11 18:52:02;;;;;;;26.00;17.13;;;14.40;99.90;;;;;;4833033;29;20284;-61
2023/05/11 18:54:31;;;;;;;27.83;16.83;;;14.40;99.90;;;;;;4836520;29;20237;-60
2023/05/11 18:57:01;;;;;;;23.93;14.83;;;14.40;99.90;;;;;;4836410;29;20202;-61
2023/05/11 18:59:29;;;;;;;24.07;15.60;;;14.40;99.90;;;;;;4823205;29;20240;-60
2023/05/11 19:01:57;;;;;;;25.50;15.87;;;14.40;99.90;;;;;;4833535;29;20287;-60
2023/05/11 19:04:26;;;;;;;26.23;15.80;;;14.50;99.90;;;;;;4841717;29;20243;-60
2023/05/11 19:06:54;;;;;;;26.47;15.87;;;14.50;99.90;;;;;;4835490;29;20901;-61
2023/05/11 19:09:24;;;;;;;25.83;16.40;;;14.50;99.90;;;;;;4824416;29;20246;-59
2023/05/11 19:11:52;;;;;;;31.27;17.40;;;14.50;99.90;;;;;;4830982;29;20240;-60
2023/05/11 19:14:20;;;;;;;27.00;16.17;;;14.50;99.90;;;;;;4838443;29;20708;-60
2023/05/11 19:16:49;;;;;;;24.87;15.83;;;14.50;99.90;;;;;;4839236;29;20364;-61
2023/05/11 19:19:17;;;;;;;29.13;16.23;;;14.40;99.90;;;;;;4838864;29;20601;-62
2023/05/11 19:21:47;;;;;;;25.13;14.93;;;14.40;99.90;;;;;;4840456;29;20281;-61
2023/05/11 19:24:16;;;;;;;25.17;15.10;;;14.40;99.90;;;;;;4832858;29;20269;-61
2023/05/11 19:26:45;;;;;;;25.10;14.83;;;14.30;99.90;;;;;;4845582;29;20625;-61
2023/05/11 19:29:32;;;;;;;20.60;14.20;;;14.30;99.90;;;;;;4833679;29;20232;-61
2023/05/11 19:32:01;;;;;;;25.00;14.67;;;14.30;99.90;;;;;;4833911;29;20293;-61
2023/05/11 19:34:29;;;;;;;17.97;14.03;;;14.20;99.90;;;;;;4837765;29;20247;-61
2023/05/11 19:36:57;;;;;;;22.93;14.23;;;14.20;99.90;;;;;;4840530;29;20232;-61
2023/05/11 19:39:25;;;;;;;21.60;14.27;;;14.20;99.90;;;;;;4841116;29;21925;-60
2023/05/11 19:41:55;;;;;;;18.77;13.83;;;14.20;99.90;;;;;;4840520;29;20205;-61
2023/05/11 19:44:23;;;;;;;22.93;14.57;;;14.20;99.90;;;;;;4839478;29;20233;-61
2023/05/11 19:46:51;;;;;;;24.80;15.70;;;14.20;99.90;;;;;;4835473;29;20221;-61
2023/05/11 19:49:19;;;;;;;20.47;13.80;;;14.20;99.90;;;;;;4838033;29;20224;-61
2023/05/11 19:51:48;;;;;;;20.77;14.47;;;14.10;99.90;;;;;;4835337;29;20292;-61
2023/05/11 19:54:16;;;;;;;26.13;15.13;;;14.10;99.90;;;;;;4842320;29;20680;-61
2023/05/11 19:56:44;;;;;;;26.00;16.50;;;14.10;99.90;;;;;;4834854;29;20578;-61
2023/05/11 19:59:14;;;;;;;35.40;18.77;;;14.10;99.90;;;;;;4838523;29;20261;-61
2023/05/11 20:01:42;;;;;;;40.73;21.57;;;14.00;99.90;;;;;;4837400;29;20711;-61
2023/05/11 20:04:11;;;;;;;40.83;21.57;;;14.00;99.90;;;;;;4838847;29;20263;-61
2023/05/11 20:06:39;;;;;;;40.30;21.70;;;14.00;99.90;;;;;;4839082;29;20215;-60
2023/05/11 20:09:08;;;;;;;44.70;21.93;;;14.00;99.90;;;;;;4836510;29;20253;-61
2023/05/11 20:11:36;;;;;;;43.73;21.93;;;13.90;99.90;;;;;;4836528;29;20227;-61
2023/05/11 20:14:05;;;;;;;45.23;23.70;;;13.90;99.90;;;;;;4837726;29;20237;-61
2023/05/11 20:16:34;;;;;;;52.50;25.57;;;13.90;99.90;;;;;;4819533;29;20231;-61
2023/05/11 20:19:02;;;;;;;51.60;26.57;;;13.90;99.90;;;;;;4837756;29;20227;-61
2023/05/11 20:21:32;;;;;;;58.00;27.00;;;13.80;99.90;;;;;;4842211;29;20573;-61
2023/05/11 20:24:00;;;;;;;52.40;26.73;;;13.80;99.90;;;;;;4834212;29;20208;-61
2023/05/11 20:26:29;;;;;;;54.80;26.33;;;13.70;99.90;;;;;;4834062;29;20643;-61
2023/05/11 20:28:58;;;;;;;47.67;24.40;;;13.70;99.90;;;;;;4832119;29;20232;-61
2023/05/11 20:31:26;;;;;;;40.43;21.87;;;13.70;99.90;;;;;;4836541;29;20258;-61
2023/05/11 20:33:56;;;;;;;37.37;20.17;;;13.60;99.90;;;;;;4839792;29;20236;-61
2023/05/11 20:36:27;;;;;;;37.90;19.60;;;13.50;99.90;;;;;;4837601;29;20259;-60
2023/05/11 20:38:56;;;;;;;31.60;18.57;;;13.50;99.90;;;;;;4839877;29;20260;-61
2023/05/11 20:41:24;;;;;;;31.57;17.73;;;13.50;99.90;;;;;;4835770;29;20228;-61
2023/05/11 20:43:52;;;;;;;30.90;18.87;;;13.40;99.90;;;;;;4838448;29;20292;-61
2023/05/11 20:46:21;;;;;;;33.30;18.97;;;13.40;99.90;;;;;;4838295;29;20260;-61
2023/05/11 20:48:49;;;;;;;33.37;19.07;;;13.40;99.90;;;;;;4840936;29;20224;-61
2023/05/11 20:51:22;;;;;;;31.50;19.17;;;13.30;99.90;;;;;;4831282;29;20205;-61
2023/05/11 20:53:50;;;;;;;32.27;19.77;;;13.30;99.90;;;;;;4835193;29;20227;-61
2023/05/11 20:56:18;;;;;;;28.97;18.90;;;13.20;99.90;;;;;;4821230;29;20297;-61
2023/05/11 20:58:46;;;;;;;29.67;19.83;;;13.20;99.90;;;;;;4835758;29;20227;-60
2023/05/11 21:01:15;;;;;;;31.53;21.17;;;13.10;99.90;;;;;;4831019;29;20232;-60
2023/05/11 21:03:43;;;;;;;37.43;21.27;;;13.20;99.90;;;;;;4833924;29;20238;-60
2023/05/11 21:06:11;;;;;;;34.47;22.47;;;13.10;99.90;;;;;;4837187;29;20222;-61
2023/05/11 21:08:41;;;;;;;39.37;23.47;;;13.10;99.90;;;;;;4839827;29;20232;-61
2023/05/11 21:11:10;;;;;;;44.50;25.73;;;13.10;99.90;;;;;;4846125;29;20226;-60
2023/05/11 21:13:38;;;;;;;42.00;25.33;;;13.10;99.90;;;;;;4834575;29;20284;-60
2023/05/11 21:16:07;;;;;;;45.80;25.77;;;13.10;99.90;;;;;;4837009;29;20228;-60
2023/05/11 21:18:35;;;;;;;43.07;27.37;;;13.10;99.90;;;;;;4834686;29;20208;-60
2023/05/11 21:21:04;;;;;;;49.07;28.70;;;13.00;99.90;;;;;;4838428;29;20200;-60
2023/05/11 21:23:33;;;;;;;47.83;28.30;;;13.00;99.90;;;;;;4823210;29;20227;-61
2023/05/11 21:26:03;;;;;;;50.07;28.67;;;13.00;99.90;;;;;;4832257;29;20223;-60
2023/05/11 21:28:33;;;;;;;49.87;28.97;;;13.00;99.90;;;;;;4845819;29;20934;-61
2023/05/11 21:31:01;;;;;;;53.90;29.53;;;13.00;99.90;;;;;;4837633;29;20231;-60
2023/05/11 21:33:30;;;;;;;50.53;30.57;;;13.00;99.90;;;;;;4837395;29;20232;-60
2023/05/11 21:35:58;;;;;;;54.70;30.73;;;13.00;99.90;;;;;;4835994;29;20197;-61
2023/05/11 21:38:26;;;;;;;55.77;30.70;;;13.00;99.90;;;;;;4839375;29;20285;-61
2023/05/11 21:40:56;;;;;;;56.37;30.43;;;12.90;99.90;;;;;;4833917;29;20916;-60
2023/05/11 21:43:25;;;;;;;62.73;31.27;;;12.90;99.90;;;;;;4841413;29;20227;-60
2023/05/11 21:45:54;;;;;;;58.57;32.80;;;12.90;99.90;;;;;;4822294;29;20235;-60
2023/05/11 21:48:22;;;;;;;63.87;33.57;;;12.90;99.90;;;;;;4837074;29;20196;-60
2023/05/11 21:50:54;;;;;;;58.87;33.10;;;12.80;99.90;;;;;;4840644;29;20201;-60
2023/05/11 21:53:24;;;;;;;58.03;32.60;;;12.80;99.90;;;;;;4845818;29;20776;-60
2023/05/11 21:55:52;;;;;;;60.13;32.57;;;12.80;99.90;;;;;;4838617;29;20742;-60
2023/05/11 21:58:20;;;;;;;56.67;32.50;;;12.80;99.90;;;;;;4839681;29;20276;-61
2023/05/11 22:00:50;;;;;;;59.17;32.43;;;12.80;99.90;;;;;;4838914;29;20289;-60
2023/05/11 22:03:18;;;;;;;59.00;32.10;;;12.80;99.90;;;;;;4838544;29;20280;-60
2023/05/11 22:05:50;;;;;;;58.40;33.80;;;12.80;99.90;;;;;;4845694;29;20229;-60
2023/05/11 22:08:18;;;;;;;57.43;33.50;;;12.80;99.90;;;;;;4844763;29;20228;-60
2023/05/11 22:10:46;;;;;;;62.77;33.43;;;12.70;99.90;;;;;;4840291;29;20529;-60
2023/05/11 22:13:15;;;;;;;64.77;35.40;;;12.80;99.90;;;;;;4837198;29;20235;-60
2023/05/11 22:15:43;;;;;;;60.90;34.07;;;12.70;99.90;;;;;;4837235;29;20235;-60
2023/05/11 22:18:12;;;;;;;60.47;33.53;;;12.70;99.90;;;;;;4836677;29;20204;-60
2023/05/11 22:20:40;;;;;;;63.43;33.17;;;12.70;99.90;;;;;;4840802;29;20234;-60
2023/05/11 22:23:09;;;;;;;65.47;34.33;;;12.70;99.90;;;;;;4840071;29;20259;-60
2023/05/11 22:25:37;;;;;;;64.60;36.27;;;12.70;99.90;;;;;;4831642;29;20233;-60
2023/05/11 22:28:06;;;;;;;66.87;36.30;;;12.60;99.90;;;;;;4841241;29;20224;-60
2023/05/11 22:30:34;;;;;;;64.57;35.57;;;12.70;99.90;;;;;;4835217;29;20246;-60
2023/05/11 22:33:03;;;;;;;69.67;39.20;;;12.60;99.90;;;;;;4841590;29;20247;-60
2023/05/11 22:35:32;;;;;;;74.53;37.80;;;12.60;99.90;;;;;;4839921;29;20215;-60
2023/05/11 22:38:01;;;;;;;72.43;37.93;;;12.50;99.90;;;;;;4839129;29;20228;-60
2023/05/11 22:40:29;;;;;;;75.60;39.83;;;12.50;99.90;;;;;;4837270;29;20224;-60
2023/05/11 22:42:57;;;;;;;76.10;38.63;;;12.50;99.90;;;;;;4842427;29;20227;-61
2023/05/11 22:45:26;;;;;;;79.63;39.47;;;12.50;99.90;;;;;;4841487;29;20203;-60
2023/05/11 22:47:54;;;;;;;71.67;39.33;;;12.50;99.90;;;;;;4841805;29;20552;-58
2023/05/11 22:50:22;;;;;;;77.60;40.13;;;12.40;99.90;;;;;;4840000;29;20254;-60
2023/05/11 22:52:52;;;;;;;78.03;40.23;;;12.50;99.90;;;;;;4845373;29;20284;-60
2023/05/11 22:55:21;;;;;;;77.13;41.20;;;12.40;99.90;;;;;;4840208;29;20228;-60
2023/05/11 22:57:50;;;;;;;84.53;42.23;;;12.40;99.90;;;;;;4847104;29;20223;-60
2023/05/11 23:00:19;;;;;;;83.83;41.80;;;12.40;99.90;;;;;;4839398;29;20193;-60
2023/05/11 23:02:47;;;;;;;86.07;42.20;;;12.40;99.90;;;;;;4841186;29;20306;-60